Time;durP1;ratioP1;P1;durP2;ratioP2;P2;SDS_P1;SDS_P2;PMS_P1;PMS_P2;Temp;Humidity;BMP_temperature;BMP_pressure;BME280_temperature;BME280_humidity;BME280_pressure;Samples;Min_cycle;Max_cycle;Signal;HPM_P1;HPM_P2
2023/04/19 00:02:17;;;;;;;0.55;0.55;;;9.80;99.90;;;;;;5021881;28;20050;-62
2023/04/19 00:04:43;;;;;;;0.10;0.10;;;9.70;99.90;;;;;;5012444;28;20049;-62
2023/04/19 00:07:09;;;;;;;1.30;1.27;;;9.70;99.90;;;;;;5016835;28;20054;-62
2023/04/19 00:09:35;;;;;;;0.15;0.15;;;9.70;99.90;;;;;;5012585;28;20100;-62
2023/04/19 00:12:02;;;;;;;0.30;0.30;;;9.70;99.90;;;;;;5012652;28;20046;-62
2023/04/19 00:14:27;;;;;;;0.50;0.50;;;9.70;99.90;;;;;;5012529;28;20116;-61
2023/04/19 00:16:53;;;;;;;0.20;0.20;;;9.70;99.90;;;;;;5012816;28;20481;-62
2023/04/19 00:19:18;;;;;;;0.10;0.10;;;9.70;99.90;;;;;;5014303;28;20506;-62
2023/04/19 00:21:44;;;;;;;0.08;0.08;;;9.60;99.90;;;;;;5018912;28;20561;-62
2023/04/19 00:24:10;;;;;;;0.10;0.10;;;9.60;99.90;;;;;;5015758;28;20096;-62
2023/04/19 00:26:35;;;;;;;0.65;0.65;;;9.60;99.90;;;;;;5011613;28;20046;-62
2023/04/19 00:29:01;;;;;;;0.10;0.10;;;9.50;99.90;;;;;;5021680;28;20955;-62
2023/04/19 00:31:26;;;;;;;0.38;0.38;;;9.60;99.90;;;;;;5012397;28;20038;-62
2023/04/19 00:33:52;;;;;;;0.00;0.00;;;9.50;99.90;;;;;;5012206;28;20050;-62
2023/04/19 00:36:17;;;;;;;0.10;0.10;;;9.50;99.90;;;;;;5011369;28;20056;-62
2023/04/19 00:38:43;;;;;;;0.20;0.20;;;9.50;99.90;;;;;;5011580;28;20406;-62
2023/04/19 00:41:09;;;;;;;0.30;0.30;;;9.50;99.90;;;;;;5011792;28;20084;-62
2023/04/19 00:43:34;;;;;;;0.10;0.10;;;9.50;99.90;;;;;;5010797;28;20072;-62
2023/04/19 00:46:00;;;;;;;0.55;0.43;;;9.40;99.90;;;;;;5011243;28;20504;-62
2023/04/19 00:48:26;;;;;;;0.10;0.10;;;9.40;99.90;;;;;;5011637;28;20497;-62
2023/04/19 00:50:51;;;;;;;0.10;0.10;;;9.40;99.90;;;;;;5019757;28;20048;-62
2023/04/19 00:53:17;;;;;;;0.57;0.57;;;9.40;99.90;;;;;;5011508;28;20209;-62
2023/04/19 00:55:43;;;;;;;0.10;0.10;;;9.40;99.90;;;;;;5009062;28;20044;-61
2023/04/19 00:58:08;;;;;;;0.35;0.35;;;9.50;99.90;;;;;;5024800;28;20049;-62
2023/04/19 01:00:35;;;;;;;0.10;0.10;;;9.50;99.90;;;;;;5009823;28;20491;-62
2023/04/19 01:03:01;;;;;;;1.13;1.10;;;9.40;99.90;;;;;;5011493;28;20060;-62
2023/04/19 01:05:26;;;;;;;0.13;0.13;;;9.40;99.90;;;;;;5012768;28;20493;-62
2023/04/19 01:07:52;;;;;;;0.80;0.75;;;9.40;99.90;;;;;;5013168;28;20048;-62
2023/04/19 01:10:18;;;;;;;0.30;0.30;;;9.40;99.90;;;;;;5011577;28;20037;-62
2023/04/19 01:12:43;;;;;;;0.20;0.20;;;9.30;99.90;;;;;;5013689;28;20049;-61
2023/04/19 01:15:09;;;;;;;1.08;0.95;;;9.40;99.90;;;;;;5010978;28;20046;-62
2023/04/19 01:17:35;;;;;;;0.75;0.40;;;9.30;99.90;;;;;;5009138;28;20077;-62
2023/04/19 01:20:02;;;;;;;0.20;0.20;;;9.30;99.90;;;;;;5024998;28;20045;-62
2023/04/19 01:22:29;;;;;;;0.30;0.30;;;9.30;99.90;;;;;;5018331;28;20046;-62
2023/04/19 01:24:56;;;;;;;0.75;0.75;;;9.20;99.90;;;;;;5021980;28;20048;-62
2023/04/19 01:27:22;;;;;;;1.75;1.08;;;9.20;99.90;;;;;;5023921;28;20041;-62
2023/04/19 01:29:48;;;;;;;0.10;0.10;;;9.20;99.90;;;;;;5010968;28;20866;-62
2023/04/19 01:32:14;;;;;;;0.35;0.35;;;9.30;99.90;;;;;;5010329;28;20038;-62
2023/04/19 01:34:40;;;;;;;0.73;0.55;;;9.30;99.90;;;;;;5010987;28;20103;-62
2023/04/19 01:37:06;;;;;;;0.10;0.10;;;9.20;99.90;;;;;;5010924;28;20050;-62
2023/04/19 01:39:32;;;;;;;0.68;0.68;;;9.20;99.90;;;;;;5009844;28;20125;-62
2023/04/19 01:41:57;;;;;;;0.30;0.30;;;9.20;99.90;;;;;;5018552;28;20123;-61
2023/04/19 01:44:23;;;;;;;0.10;0.10;;;9.20;99.90;;;;;;5009987;28;20038;-62
2023/04/19 01:46:48;;;;;;;0.10;0.10;;;9.10;99.90;;;;;;5009281;28;20045;-62
2023/04/19 01:49:15;;;;;;;0.20;0.20;;;9.10;99.90;;;;;;5012743;28;20042;-61
2023/04/19 01:51:40;;;;;;;0.30;0.30;;;9.20;99.90;;;;;;5015072;28;20521;-61
2023/04/19 01:54:06;;;;;;;0.35;0.25;;;9.10;99.90;;;;;;5026430;28;20041;-62
2023/04/19 01:56:32;;;;;;;0.10;0.10;;;9.00;99.90;;;;;;5011077;28;20413;-62
2023/04/19 01:58:57;;;;;;;0.20;0.20;;;9.00;99.90;;;;;;5010188;28;20038;-62
2023/04/19 02:01:23;;;;;;;0.50;0.50;;;9.10;99.90;;;;;;5009087;28;20371;-62
2023/04/19 02:03:49;;;;;;;0.30;0.30;;;9.10;99.90;;;;;;5020885;28;20393;-62
2023/04/19 02:06:14;;;;;;;0.50;0.50;;;9.00;99.90;;;;;;5010235;28;20485;-62
2023/04/19 02:08:41;;;;;;;0.10;0.10;;;9.00;99.90;;;;;;5010834;28;20108;-62
2023/04/19 02:11:14;;;;;;;2.00;0.93;;;8.90;99.90;;;;;;5009565;28;20066;-62
2023/04/19 02:13:40;;;;;;;0.10;0.10;;;9.00;99.90;;;;;;5009988;28;20568;-62
2023/04/19 02:16:07;;;;;;;0.52;0.52;;;9.00;99.90;;;;;;5010476;28;20069;-62
2023/04/19 02:18:37;;;;;;;0.30;0.30;;;8.90;99.90;;;;;;5007245;28;20046;-62
2023/04/19 02:21:04;;;;;;;0.30;0.30;;;8.90;99.90;;;;;;5016630;28;20052;-62
2023/04/19 02:23:29;;;;;;;0.35;0.35;;;8.90;99.90;;;;;;5023356;28;20042;-62
2023/04/19 02:25:55;;;;;;;0.57;0.57;;;8.90;99.90;;;;;;5008338;28;20379;-62
2023/04/19 02:28:21;;;;;;;1.50;0.65;;;8.90;99.90;;;;;;5016017;28;20042;-62
2023/04/19 02:30:46;;;;;;;0.30;0.30;;;8.90;99.90;;;;;;5010027;28;20490;-62
2023/04/19 02:33:12;;;;;;;0.63;0.63;;;8.90;99.90;;;;;;5010043;28;20038;-61
2023/04/19 02:35:37;;;;;;;0.30;0.30;;;8.90;99.90;;;;;;5012115;28;20080;-62
2023/04/19 02:38:03;;;;;;;0.20;0.20;;;8.90;99.90;;;;;;5010618;28;20081;-62
2023/04/19 02:40:29;;;;;;;1.20;0.95;;;8.80;99.90;;;;;;5011872;28;20067;-62
2023/04/19 02:42:55;;;;;;;0.30;0.30;;;8.90;99.90;;;;;;5019413;28;20088;-62
2023/04/19 02:45:21;;;;;;;0.20;0.20;;;8.80;99.90;;;;;;5010119;28;20052;-62
2023/04/19 02:47:46;;;;;;;0.30;0.30;;;8.80;99.90;;;;;;5009715;28;20042;-62
2023/04/19 02:50:14;;;;;;;5.57;0.95;;;8.80;99.90;;;;;;5012127;28;20049;-62
2023/04/19 02:52:39;;;;;;;0.43;0.43;;;8.70;99.90;;;;;;5009472;28;20405;-62
2023/04/19 02:55:05;;;;;;;0.20;0.20;;;8.60;99.90;;;;;;5013109;28;20112;-62
2023/04/19 02:57:31;;;;;;;2.08;1.55;;;8.70;99.90;;;;;;5013262;28;20108;-62
2023/04/19 02:59:57;;;;;;;1.55;1.40;;;8.70;99.90;;;;;;5021204;28;20030;-62
2023/04/19 03:02:24;;;;;;;1.10;1.10;;;8.60;99.90;;;;;;5015039;28;20042;-62
2023/04/19 03:04:51;;;;;;;0.10;0.10;;;8.60;99.90;;;;;;5015242;28;20497;-62
2023/04/19 03:07:17;;;;;;;0.63;0.45;;;8.60;99.90;;;;;;5017217;28;20045;-62
2023/04/19 03:09:43;;;;;;;0.32;0.32;;;8.50;99.90;;;;;;5016384;28;20075;-62
2023/04/19 03:12:09;;;;;;;0.68;0.57;;;8.50;99.90;;;;;;5016666;28;20077;-62
2023/04/19 03:14:34;;;;;;;0.50;0.50;;;8.50;99.90;;;;;;5015945;28;20120;-62
2023/04/19 03:17:00;;;;;;;0.35;0.35;;;8.50;99.90;;;;;;5023196;28;20215;-61
2023/04/19 03:19:25;;;;;;;0.80;0.80;;;8.60;99.90;;;;;;5014374;28;20049;-62
2023/04/19 03:21:51;;;;;;;0.35;0.35;;;8.60;99.90;;;;;;5011680;28;20521;-62
2023/04/19 03:24:26;;;;;;;0.32;0.32;;;8.60;99.90;;;;;;5013544;28;20046;-61
2023/04/19 03:26:51;;;;;;;0.35;0.35;;;8.50;99.90;;;;;;5014153;28;20045;-62
2023/04/19 03:29:17;;;;;;;0.70;0.70;;;8.50;99.90;;;;;;5012208;28;20417;-62
2023/04/19 03:31:42;;;;;;;0.40;0.40;;;8.40;99.90;;;;;;5029194;28;20129;-62
2023/04/19 03:34:08;;;;;;;1.77;1.00;;;8.40;99.90;;;;;;5014347;28;20085;-61
2023/04/19 03:36:34;;;;;;;0.20;0.20;;;8.40;99.90;;;;;;5012945;28;20073;-62
2023/04/19 03:39:01;;;;;;;0.20;0.20;;;8.40;99.90;;;;;;5012069;28;20056;-61
2023/04/19 03:41:26;;;;;;;0.10;0.10;;;8.40;99.90;;;;;;5013701;28;20046;-61
2023/04/19 03:43:52;;;;;;;0.70;0.70;;;8.30;99.90;;;;;;5025792;28;20034;-62
2023/04/19 03:46:18;;;;;;;0.10;0.10;;;8.30;99.90;;;;;;5013699;28;20046;-62
2023/04/19 03:48:43;;;;;;;1.75;1.48;;;8.20;99.90;;;;;;5011911;28;20123;-61
2023/04/19 03:51:09;;;;;;;0.20;0.20;;;8.20;99.90;;;;;;5016260;28;20058;-62
2023/04/19 03:53:35;;;;;;;0.40;0.40;;;8.20;99.90;;;;;;5017714;28;20053;-62
2023/04/19 03:56:01;;;;;;;0.10;0.10;;;8.20;99.90;;;;;;5012953;28;20050;-61
2023/04/19 03:58:27;;;;;;;0.43;0.43;;;8.20;99.90;;;;;;5013547;28;20061;-62
2023/04/19 04:00:52;;;;;;;2.17;1.00;;;8.20;99.90;;;;;;5018425;28;20057;-61
2023/04/19 04:03:18;;;;;;;0.82;0.45;;;8.10;99.90;;;;;;5013358;28;20046;-62
2023/04/19 04:05:44;;;;;;;0.10;0.10;;;8.10;99.90;;;;;;5012586;28;20405;-61
2023/04/19 04:08:10;;;;;;;0.10;0.10;;;8.10;99.90;;;;;;5025774;28;20041;-62
2023/04/19 04:10:35;;;;;;;0.52;0.52;;;8.10;99.90;;;;;;5016860;28;20104;-61
2023/04/19 04:13:01;;;;;;;0.15;0.15;;;8.10;99.90;;;;;;5012854;28;20049;-62
2023/04/19 04:15:26;;;;;;;0.60;0.60;;;8.00;99.90;;;;;;5014391;28;20046;-61
2023/04/19 04:17:52;;;;;;;0.80;0.52;;;8.00;99.90;;;;;;5014277;28;20436;-61
2023/04/19 04:20:18;;;;;;;0.20;0.20;;;8.00;99.90;;;;;;5024037;28;20121;-62
2023/04/19 04:22:47;;;;;;;0.57;0.57;;;8.00;99.90;;;;;;5012697;28;20470;-62
2023/04/19 04:25:14;;;;;;;1.42;1.33;;;7.90;99.90;;;;;;5021807;28;20071;-62
2023/04/19 04:27:41;;;;;;;0.05;0.05;;;8.00;99.90;;;;;;5012097;28;20046;-62
2023/04/19 04:30:08;;;;;;;0.80;0.80;;;7.80;99.90;;;;;;5020904;28;20534;-62
2023/04/19 04:32:34;;;;;;;0.10;0.10;;;7.90;99.90;;;;;;5018116;28;20041;-62
2023/04/19 04:35:04;;;;;;;0.10;0.10;;;7.90;99.90;;;;;;5021026;28;20448;-61
2023/04/19 04:37:36;;;;;;;0.10;0.10;;;7.90;99.90;;;;;;5014603;28;20048;-62
2023/04/19 04:40:06;;;;;;;0.20;0.20;;;7.90;99.90;;;;;;5011748;28;20049;-61
2023/04/19 04:42:32;;;;;;;0.10;0.10;;;7.80;99.90;;;;;;5025313;28;20132;-61
2023/04/19 04:45:00;;;;;;;0.10;0.10;;;7.90;99.90;;;;;;5012538;28;20117;-61
2023/04/19 04:47:30;;;;;;;1.50;1.02;;;7.90;99.90;;;;;;5017491;28;20049;-61
2023/04/19 04:49:56;;;;;;;0.25;0.25;;;7.80;99.90;;;;;;5018033;28;20120;-61
2023/04/19 04:52:22;;;;;;;0.03;0.03;;;7.90;99.90;;;;;;5015024;28;20058;-62
2023/04/19 04:54:47;;;;;;;0.08;0.08;;;7.80;99.90;;;;;;5011946;28;20072;-61
2023/04/19 04:57:13;;;;;;;0.65;0.65;;;7.80;99.90;;;;;;5014618;28;20057;-61
2023/04/19 04:59:38;;;;;;;0.90;0.68;;;7.80;99.90;;;;;;5024291;28;20045;-62
2023/04/19 05:02:04;;;;;;;10.50;2.60;;;7.70;99.90;;;;;;5012063;28;20085;-62
2023/04/19 05:04:30;;;;;;;1.90;0.95;;;7.80;99.90;;;;;;5011758;28;20449;-62
2023/04/19 05:06:55;;;;;;;0.43;0.43;;;7.80;99.90;;;;;;5011184;28;20033;-61
2023/04/19 05:09:21;;;;;;;1.92;1.20;;;7.80;99.90;;;;;;5011684;28;20050;-61
2023/04/19 05:11:47;;;;;;;0.90;0.63;;;7.80;99.90;;;;;;5011677;28;20046;-62
2023/04/19 05:14:12;;;;;;;1.75;1.38;;;7.70;99.90;;;;;;5021410;28;20042;-62
2023/04/19 05:16:38;;;;;;;0.00;0.00;;;7.70;99.90;;;;;;5009287;28;20037;-61
2023/04/19 05:19:04;;;;;;;0.20;0.20;;;7.70;99.90;;;;;;5013964;28;20045;-61
2023/04/19 05:21:29;;;;;;;0.50;0.50;;;7.70;99.90;;;;;;5010683;28;20042;-62
2023/04/19 05:23:55;;;;;;;0.10;0.10;;;7.70;99.90;;;;;;5009988;28;20092;-62
2023/04/19 05:26:21;;;;;;;0.10;0.10;;;7.70;99.90;;;;;;5011144;28;20045;-61
2023/04/19 05:28:46;;;;;;;0.32;0.32;;;7.70;99.90;;;;;;5010750;28;20394;-61
2023/04/19 05:31:12;;;;;;;0.28;0.28;;;7.80;99.90;;;;;;5009685;28;20042;-61
2023/04/19 05:33:38;;;;;;;0.20;0.20;;;7.80;99.90;;;;;;5011168;28;20046;-61
2023/04/19 05:36:04;;;;;;;0.10;0.10;;;7.80;99.90;;;;;;5008935;28;20038;-61
2023/04/19 05:38:29;;;;;;;1.50;1.30;;;7.80;99.90;;;;;;5022757;28;20041;-61
2023/04/19 05:40:55;;;;;;;0.52;0.52;;;7.80;99.90;;;;;;5024671;28;20053;-62
2023/04/19 05:43:21;;;;;;;0.45;0.45;;;7.80;99.90;;;;;;5010345;28;20077;-61
2023/04/19 05:45:46;;;;;;;0.10;0.10;;;7.90;99.90;;;;;;5024012;28;20083;-62
2023/04/19 05:48:12;;;;;;;0.10;0.10;;;7.90;99.90;;;;;;5011554;28;20089;-61
2023/04/19 05:50:38;;;;;;;0.45;0.45;;;7.90;99.90;;;;;;5011675;28;20069;-62
2023/04/19 05:53:04;;;;;;;0.77;0.73;;;7.90;99.90;;;;;;5010811;28;20481;-61
2023/04/19 05:55:30;;;;;;;0.43;0.40;;;8.00;99.90;;;;;;5023172;28;20156;-61
2023/04/19 05:57:55;;;;;;;0.10;0.10;;;8.00;99.90;;;;;;5009615;28;20057;-62
2023/04/19 06:00:21;;;;;;;0.10;0.10;;;8.00;99.90;;;;;;5016100;28;20140;-62
2023/04/19 06:02:46;;;;;;;0.10;0.10;;;8.00;99.90;;;;;;5022120;28;20124;-61
2023/04/19 06:05:12;;;;;;;0.00;0.00;;;8.00;99.90;;;;;;5009792;28;20042;-65
2023/04/19 06:07:38;;;;;;;0.17;0.17;;;8.00;99.90;;;;;;5010780;28;20462;-62
2023/04/19 06:10:04;;;;;;;0.63;0.63;;;8.10;99.90;;;;;;5009994;28;20045;-62
2023/04/19 06:12:29;;;;;;;0.63;0.63;;;8.20;99.90;;;;;;5011240;28;20135;-62
2023/04/19 06:14:55;;;;;;;0.00;0.00;;;8.20;99.90;;;;;;5010389;28;20089;-62
2023/04/19 06:17:24;;;;;;;0.65;0.65;;;8.30;99.90;;;;;;5019810;28;20056;-62
2023/04/19 06:19:53;;;;;;;0.10;0.10;;;8.30;99.90;;;;;;5010112;28;20042;-61
2023/04/19 06:22:20;;;;;;;0.15;0.15;;;8.30;99.90;;;;;;5018376;28;20053;-62
2023/04/19 06:24:46;;;;;;;0.10;0.10;;;8.40;99.90;;;;;;5009747;28;20045;-61
2023/04/19 06:27:12;;;;;;;0.00;0.00;;;8.40;99.90;;;;;;5012689;28;20041;-61
2023/04/19 06:29:37;;;;;;;0.13;0.13;;;8.50;99.90;;;;;;5011768;28;20374;-61
2023/04/19 06:32:03;;;;;;;0.10;0.10;;;8.50;99.90;;;;;;5009839;28;20389;-62
2023/04/19 06:34:29;;;;;;;1.85;1.27;;;8.50;99.90;;;;;;5018580;28;20044;-62
2023/04/19 06:36:55;;;;;;;0.15;0.15;;;8.60;99.90;;;;;;5010559;28;20545;-62
2023/04/19 06:39:20;;;;;;;0.10;0.10;;;8.60;99.90;;;;;;5022415;28;20124;-62
2023/04/19 06:41:46;;;;;;;0.00;0.00;;;8.60;99.90;;;;;;5009393;28;20489;-62
2023/04/19 06:44:12;;;;;;;0.10;0.10;;;8.70;99.90;;;;;;5010061;28;20045;-61
2023/04/19 06:46:38;;;;;;;0.08;0.08;;;8.70;99.90;;;;;;5018441;28;20132;-61
2023/04/19 06:49:03;;;;;;;0.10;0.10;;;8.80;99.90;;;;;;5011641;28;20080;-61
2023/04/19 06:51:29;;;;;;;0.25;0.25;;;8.80;99.90;;;;;;5014407;28;20061;-61
2023/04/19 06:53:55;;;;;;;0.20;0.20;;;8.80;99.90;;;;;;5010071;28;20037;-62
2023/04/19 06:56:44;;;;;;;0.10;0.10;;;8.80;99.90;;;;;;5011137;28;20050;-61
2023/04/19 06:59:15;;;;;;;0.05;0.05;;;8.90;99.90;;;;;;5009231;28;20533;-62
2023/04/19 07:01:41;;;;;;;0.10;0.10;;;9.00;99.90;;;;;;5012108;28;20129;-61
2023/04/19 07:04:07;;;;;;;0.10;0.10;;;9.00;99.90;;;;;;5010590;28;20164;-62
2023/04/19 07:06:36;;;;;;;0.63;0.63;;;9.10;99.90;;;;;;5009649;28;20127;-62
2023/04/19 07:09:03;;;;;;;0.20;0.20;;;9.20;99.90;;;;;;5011944;28;20117;-61
2023/04/19 07:11:29;;;;;;;0.10;0.10;;;9.20;99.90;;;;;;5010630;28;20068;-61
2023/04/19 07:13:55;;;;;;;0.00;0.00;;;9.20;99.90;;;;;;5007784;28;20403;-62
2023/04/19 07:16:21;;;;;;;0.10;0.10;;;9.30;99.90;;;;;;5010230;28;20045;-62
2023/04/19 07:18:46;;;;;;;0.20;0.20;;;9.40;99.90;;;;;;5016299;28;20053;-62
2023/04/19 07:21:12;;;;;;;0.00;0.00;;;9.50;99.90;;;;;;5012161;28;20046;-61
2023/04/19 07:23:38;;;;;;;0.57;0.57;;;9.50;99.90;;;;;;5019865;28;20046;-62
2023/04/19 07:26:03;;;;;;;0.10;0.10;;;9.60;99.90;;;;;;5009619;28;20056;-62
2023/04/19 07:28:29;;;;;;;0.00;0.00;;;9.60;99.90;;;;;;5008995;28;20046;-62
2023/04/19 07:30:55;;;;;;;0.20;0.20;;;9.70;99.90;;;;;;5009841;28;20054;-62
2023/04/19 07:33:23;;;;;;;0.17;0.17;;;9.70;99.90;;;;;;5009721;28;20080;-62
2023/04/19 07:35:49;;;;;;;0.30;0.30;;;9.80;99.90;;;;;;5018000;28;20038;-61
2023/04/19 07:38:14;;;;;;;0.30;0.20;;;9.80;99.90;;;;;;5009459;28;20100;-62
2023/04/19 07:40:40;;;;;;;0.03;0.03;;;9.90;99.90;;;;;;5009569;28;20054;-62
2023/04/19 07:43:06;;;;;;;0.10;0.10;;;10.00;99.90;;;;;;5016460;28;20436;-62
2023/04/19 07:45:31;;;;;;;0.10;0.10;;;10.10;99.90;;;;;;5016704;28;20044;-62
2023/04/19 07:47:57;;;;;;;0.13;0.13;;;10.20;99.90;;;;;;5011542;28;20050;-62
2023/04/19 07:50:25;;;;;;;0.28;0.28;;;10.20;99.90;;;;;;5013507;28;20083;-62
2023/04/19 07:52:51;;;;;;;0.10;0.10;;;10.20;99.90;;;;;;5013282;28;20041;-62
2023/04/19 07:55:16;;;;;;;0.52;0.52;;;10.30;99.90;;;;;;5012128;28;20864;-61
2023/04/19 07:57:46;;;;;;;0.35;0.35;;;10.40;99.90;;;;;;5011929;28;20076;-62
2023/04/19 08:00:14;;;;;;;0.10;0.10;;;10.40;99.90;;;;;;5013234;28;20407;-62
2023/04/19 08:02:45;;;;;;;2.60;2.10;;;10.40;99.90;;;;;;5023567;28;20052;-61
2023/04/19 08:05:11;;;;;;;0.65;0.65;;;10.50;99.90;;;;;;5014252;28;20042;-62
2023/04/19 08:07:37;;;;;;;0.00;0.00;;;10.50;99.90;;;;;;5015121;28;20129;-61
2023/04/19 08:10:04;;;;;;;0.30;0.30;;;10.60;99.90;;;;;;5012325;28;20117;-62
2023/04/19 08:12:30;;;;;;;0.00;0.00;;;10.60;99.90;;;;;;5012744;28;20046;-62
2023/04/19 08:14:55;;;;;;;0.35;0.28;;;10.70;99.90;;;;;;5016446;28;20038;-62
2023/04/19 08:17:23;;;;;;;0.10;0.10;;;10.70;99.90;;;;;;5013310;28;20050;-62
2023/04/19 08:19:49;;;;;;;0.10;0.10;;;10.80;99.90;;;;;;5010845;28;20038;-62
2023/04/19 08:22:16;;;;;;;1.65;0.90;;;10.80;99.90;;;;;;5020956;28;20122;-61
2023/04/19 08:24:41;;;;;;;0.10;0.10;;;10.90;99.90;;;;;;5014696;28;20041;-62
2023/04/19 08:27:08;;;;;;;1.60;1.08;;;11.00;99.90;;;;;;5011304;28;20038;-62
2023/04/19 08:29:34;;;;;;;0.43;0.43;;;11.30;99.90;;;;;;5016115;28;20033;-62
2023/04/19 08:32:00;;;;;;;0.10;0.10;;;11.70;99.90;;;;;;5026096;28;20136;-62
2023/04/19 08:34:26;;;;;;;0.80;0.80;;;12.40;99.90;;;;;;5018447;28;20037;-62
2023/04/19 08:36:52;;;;;;;0.10;0.10;;;13.20;98.50;;;;;;5020783;28;20046;-62
2023/04/19 08:39:18;;;;;;;0.10;0.10;;;14.00;98.50;;;;;;5009847;28;20040;-62
2023/04/19 08:41:43;;;;;;;0.38;0.38;;;14.20;96.40;;;;;;5012008;28;20049;-62
2023/04/19 08:44:13;;;;;;;0.20;0.20;;;14.60;95.20;;;;;;5012514;28;20042;-62
2023/04/19 08:46:40;;;;;;;0.00;0.00;;;15.10;94.40;;;;;;5012921;28;20083;-62
2023/04/19 08:49:08;;;;;;;0.17;0.17;;;15.10;93.90;;;;;;5013039;28;20061;-62
2023/04/19 08:51:34;;;;;;;0.10;0.10;;;15.60;93.90;;;;;;5017510;28;20058;-62
2023/04/19 08:54:03;;;;;;;0.10;0.10;;;16.00;92.80;;;;;;5012006;28;20127;-62
2023/04/19 08:56:29;;;;;;;0.10;0.10;;;16.10;93.10;;;;;;5014341;28;20489;-62
2023/04/19 08:58:55;;;;;;;0.03;0.03;;;16.60;92.60;;;;;;5011283;28;20038;-62
2023/04/19 09:01:20;;;;;;;0.20;0.20;;;16.60;92.10;;;;;;5012358;28;20112;-62
2023/04/19 09:03:46;;;;;;;0.10;0.10;;;17.00;92.60;;;;;;5011921;28;20037;-62
2023/04/19 09:06:12;;;;;;;0.10;0.10;;;16.90;90.70;;;;;;5010052;28;20042;-62
2023/04/19 09:08:39;;;;;;;0.08;0.08;;;16.70;90.60;;;;;;5011541;28;20478;-62
2023/04/19 09:11:05;;;;;;;0.25;0.25;;;16.80;91.20;;;;;;5022186;28;20481;-62
2023/04/19 09:13:31;;;;;;;0.00;0.00;;;17.20;91.10;;;;;;5010321;28;20144;-63
2023/04/19 09:15:59;;;;;;;0.00;0.00;;;17.50;91.30;;;;;;5014859;28;20085;-62
2023/04/19 09:18:25;;;;;;;0.10;0.10;;;17.20;90.00;;;;;;5011546;28;20045;-62
2023/04/19 09:20:56;;;;;;;1.00;0.55;;;16.90;90.20;;;;;;5010651;28;20488;-63
2023/04/19 09:23:24;;;;;;;0.13;0.13;;;17.40;90.40;;;;;;5021248;28;20539;-62
2023/04/19 09:25:55;;;;;;;0.00;0.00;;;17.00;89.80;;;;;;5011721;28;20057;-62
2023/04/19 09:28:20;;;;;;;0.20;0.20;;;17.20;90.90;;;;;;5010921;28;20251;-62
2023/04/19 09:30:47;;;;;;;0.10;0.10;;;17.60;89.30;;;;;;5017255;28;20058;-62
2023/04/19 09:33:13;;;;;;;0.03;0.03;;;17.70;89.50;;;;;;5011888;28;20045;-62
2023/04/19 09:35:44;;;;;;;0.00;0.00;;;17.20;86.00;;;;;;5012082;28;20053;-63
2023/04/19 09:38:10;;;;;;;0.95;0.95;;;17.30;89.20;;;;;;5018371;28;20069;-62
2023/04/19 09:40:37;;;;;;;0.10;0.10;;;17.20;89.50;;;;;;5010185;28;20073;-62
2023/04/19 09:43:03;;;;;;;0.10;0.10;;;17.60;89.60;;;;;;5011273;28;20148;-62
2023/04/19 09:45:43;;;;;;;0.00;0.00;;;17.30;87.60;;;;;;5013328;28;20545;-62
2023/04/19 09:48:10;;;;;;;0.00;0.00;;;17.30;87.70;;;;;;5012177;28;20445;-63
2023/04/19 09:50:55;;;;;;;1.65;0.22;;;17.40;89.10;;;;;;5016329;28;20061;-63
2023/04/19 09:53:22;;;;;;;0.10;0.10;;;17.40;89.00;;;;;;5010101;28;20085;-62
2023/04/19 09:55:48;;;;;;;0.10;0.10;;;18.10;89.30;;;;;;5010381;28;20045;-62
2023/04/19 09:58:15;;;;;;;0.00;0.00;;;17.70;88.80;;;;;;5012074;28;20057;-63
2023/04/19 10:00:43;;;;;;;0.17;0.17;;;17.60;87.80;;;;;;5015188;28;20077;-62
2023/04/19 10:03:09;;;;;;;0.32;0.32;;;17.50;88.10;;;;;;5009977;28;20048;-62
2023/04/19 10:05:40;;;;;;;0.10;0.10;;;17.50;88.20;;;;;;5010930;28;20485;-62
2023/04/19 10:08:09;;;;;;;0.00;0.00;;;17.50;86.30;;;;;;5011391;28;20107;-62
2023/04/19 10:10:35;;;;;;;0.00;0.00;;;17.60;88.00;;;;;;5008480;28;20052;-62
2023/04/19 10:13:07;;;;;;;0.00;0.00;;;17.60;87.70;;;;;;5009955;28;20409;-62
2023/04/19 10:15:35;;;;;;;0.00;0.00;;;17.40;88.10;;;;;;5012016;28;20393;-62
2023/04/19 10:18:03;;;;;;;0.43;0.32;;;17.30;86.70;;;;;;5010085;28;20564;-62
2023/04/19 10:20:53;;;;;;;1.30;1.13;;;16.90;88.90;;;;;;5014326;28;20068;-62
2023/04/19 10:23:20;;;;;;;0.10;0.10;;;17.20;90.10;;;;;;5010805;28;20447;-62
2023/04/19 10:25:48;;;;;;;0.63;0.63;;;17.30;91.70;;;;;;5010582;28;20065;-63
2023/04/19 10:28:16;;;;;;;0.22;0.22;;;17.50;90.90;;;;;;5010476;28;20050;-63
2023/04/19 10:30:53;;;;;;;0.15;0.15;;;17.50;92.20;;;;;;5008959;28;20478;-63
2023/04/19 10:33:35;;;;;;;0.32;0.20;;;17.50;93.30;;;;;;5010399;28;20137;-63
2023/04/19 10:36:01;;;;;;;0.10;0.10;;;17.20;93.00;;;;;;5010272;28;20042;-63
2023/04/19 10:38:37;;;;;;;0.17;0.17;;;17.10;92.70;;;;;;5012778;28;20077;-63
2023/04/19 10:41:04;;;;;;;0.00;0.00;;;17.00;92.70;;;;;;5010205;28;20045;-63
2023/04/19 10:43:34;;;;;;;0.00;0.00;;;17.00;94.10;;;;;;5010170;28;20048;-63
2023/04/19 10:46:08;;;;;;;4.38;2.38;;;17.10;93.70;;;;;;5014025;28;20612;-63
2023/04/19 10:48:40;;;;;;;0.30;0.30;;;17.20;93.30;;;;;;5010111;28;20124;-63
2023/04/19 10:51:14;;;;;;;0.10;0.10;;;17.00;92.90;;;;;;5014017;28;20161;-63
2023/04/19 10:53:48;;;;;;;0.10;0.10;;;17.20;93.20;;;;;;5008456;28;20417;-63
2023/04/19 10:56:15;;;;;;;0.17;0.17;;;17.40;93.10;;;;;;5010428;28;20054;-63
2023/04/19 10:58:59;;;;;;;0.25;0.25;;;17.40;94.10;;;;;;5011875;28;20037;-63
2023/04/19 11:01:38;;;;;;;0.20;0.20;;;17.50;93.00;;;;;;5010148;28;20140;-63
2023/04/19 11:04:07;;;;;;;0.43;0.43;;;17.60;92.30;;;;;;5010971;28;20378;-63
2023/04/19 11:06:33;;;;;;;0.10;0.10;;;17.70;92.70;;;;;;5008256;28;20037;-63
2023/04/19 11:09:01;;;;;;;0.00;0.00;;;17.60;92.20;;;;;;5009532;28;20757;-63
2023/04/19 11:11:27;;;;;;;0.05;0.05;;;17.70;91.60;;;;;;5010175;28;20044;-63
2023/04/19 11:13:55;;;;;;;0.10;0.10;;;17.70;91.80;;;;;;5009407;28;20053;-63
2023/04/19 11:16:20;;;;;;;0.00;0.00;;;17.80;91.90;;;;;;5022229;28;20374;-63
2023/04/19 11:18:46;;;;;;;0.20;0.20;;;17.70;91.90;;;;;;5014530;28;20049;-63
2023/04/19 11:21:17;;;;;;;0.00;0.00;;;18.00;91.80;;;;;;5016536;28;20041;-63
2023/04/19 11:23:43;;;;;;;0.45;0.45;;;18.00;91.90;;;;;;5013342;28;20049;-63
2023/04/19 11:26:11;;;;;;;0.10;0.10;;;18.00;91.60;;;;;;5013314;28;20100;-63
2023/04/19 11:28:38;;;;;;;0.15;0.15;;;18.00;90.20;;;;;;5018439;28;20041;-63
2023/04/19 11:31:04;;;;;;;0.65;0.65;;;17.80;91.70;;;;;;5027032;28;20154;-63
2023/04/19 11:33:36;;;;;;;0.10;0.10;;;18.10;91.70;;;;;;5012833;28;20375;-63
2023/04/19 11:36:02;;;;;;;0.00;0.00;;;18.30;91.30;;;;;;5014674;28;20406;-63
2023/04/19 11:38:29;;;;;;;0.25;0.25;;;18.10;91.40;;;;;;5019141;28;20041;-63
2023/04/19 11:41:02;;;;;;;0.00;0.00;;;18.00;88.60;;;;;;5013286;28;20045;-63
2023/04/19 11:43:35;;;;;;;0.00;0.00;;;17.60;88.50;;;;;;5020584;28;20046;-63
2023/04/19 11:46:07;;;;;;;0.08;0.08;;;18.00;90.80;;;;;;5015958;28;20041;-63
2023/04/19 11:48:33;;;;;;;0.00;0.00;;;17.90;90.00;;;;;;5012052;28;20521;-63
2023/04/19 11:50:59;;;;;;;0.00;0.00;;;18.10;89.80;;;;;;5020833;28;20054;-63
2023/04/19 11:53:26;;;;;;;0.00;0.00;;;18.30;89.30;;;;;;5016631;28;20052;-63
2023/04/19 11:56:06;;;;;;;0.10;0.10;;;18.50;90.50;;;;;;5012768;28;20037;-63
2023/04/19 11:58:36;;;;;;;0.00;0.00;;;18.40;87.50;;;;;;5013121;28;20046;-63
2023/04/19 12:01:06;;;;;;;0.10;0.10;;;18.30;87.20;;;;;;5014240;28;20050;-63
2023/04/19 12:03:33;;;;;;;0.35;0.35;;;18.20;88.30;;;;;;5012454;28;20049;-64
2023/04/19 12:06:02;;;;;;;0.85;0.30;;;18.30;87.20;;;;;;5011796;28;20077;-63
2023/04/19 12:08:41;;;;;;;0.10;0.10;;;18.20;87.40;;;;;;5021126;28;20135;-63
2023/04/19 12:11:07;;;;;;;0.00;0.00;;;18.20;86.90;;;;;;5013239;28;20046;-63
2023/04/19 12:13:33;;;;;;;0.00;0.00;;;18.30;89.30;;;;;;5011823;28;20042;-63
2023/04/19 12:15:59;;;;;;;0.00;0.00;;;18.80;90.10;;;;;;5016265;28;20042;-63
2023/04/19 12:18:26;;;;;;;0.10;0.10;;;18.80;89.00;;;;;;5011392;28;20401;-64
2023/04/19 12:20:52;;;;;;;5.10;1.95;;;18.70;87.50;;;;;;5011722;28;20048;-64
2023/04/19 12:23:19;;;;;;;0.10;0.10;;;18.80;87.20;;;;;;5014603;28;20042;-64
2023/04/19 12:25:46;;;;;;;0.00;0.00;;;18.70;87.00;;;;;;5021502;28;20516;-63
2023/04/19 12:28:13;;;;;;;0.10;0.10;;;18.30;90.40;;;;;;5013218;28;20128;-64
2023/04/19 12:30:40;;;;;;;0.30;0.30;;;18.90;88.00;;;;;;5010640;28;20157;-64
2023/04/19 12:33:06;;;;;;;0.32;0.32;;;18.10;87.40;;;;;;5012685;28;20053;-63
2023/04/19 12:35:32;;;;;;;0.85;0.47;;;18.50;90.30;;;;;;5012591;28;20405;-63
2023/04/19 12:37:59;;;;;;;0.13;0.13;;;18.70;88.90;;;;;;5013260;28;20042;-63
2023/04/19 12:40:25;;;;;;;0.10;0.10;;;18.80;90.30;;;;;;5010970;28;20042;-63
2023/04/19 12:42:51;;;;;;;0.00;0.00;;;18.70;90.00;;;;;;5011428;28;20041;-63
2023/04/19 12:45:18;;;;;;;0.25;0.25;;;18.60;90.00;;;;;;5010196;28;20406;-63
2023/04/19 12:47:46;;;;;;;0.00;0.00;;;19.00;90.60;;;;;;5010960;28;20658;-64
2023/04/19 12:50:12;;;;;;;0.30;0.30;;;18.90;90.70;;;;;;5020155;28;20203;-64
2023/04/19 12:52:39;;;;;;;0.20;0.20;;;19.00;91.20;;;;;;5022448;28;20058;-63